Time;durP1;ratioP1;P1;durP2;ratioP2;P2;SDS_P1;SDS_P2;PMS_P1;PMS_P2;Temp;Humidity;BMP_temperature;BMP_pressure;BME280_temperature;BME280_humidity;BME280_pressure;Samples;Min_cycle;Max_cycle;Signal;HPM_P1;HPM_P2
2022/06/03 00:01:07;;;;;;;5.65;2.20;;;;;;;;;;4803317;29;20058;-71
2022/06/03 00:03:37;;;;;;;5.65;2.22;;;;;;;;;;4814293;29;20077;-73
2022/06/03 00:06:36;;;;;;;7.22;3.03;;;;;;;;;;4782361;29;20062;-73
2022/06/03 00:09:19;;;;;;;4.95;2.10;;;;;;;;;;4782579;30;20062;-72
2022/06/03 00:12:14;;;;;;;8.65;2.30;;;;;;;;;;4782467;30;20051;-73
2022/06/03 00:15:20;;;;;;;4.88;2.03;;;;;;;;;;4783506;30;20066;-74
2022/06/03 00:18:05;;;;;;;9.63;2.97;;;;;;;;;;4783669;30;20066;-74
2022/06/03 00:20:58;;;;;;;3.92;3.22;;;;;;;;;;4783501;30;20047;-75
2022/06/03 00:23:36;;;;;;;4.65;2.83;;;;;;;;;;4784019;30;20072;-73
2022/06/03 00:26:28;;;;;;;6.65;2.72;;;;;;;;;;4767490;30;20055;-72
2022/06/03 00:29:35;;;;;;;5.20;2.88;;;;;;;;;;4766322;30;20527;-75
2022/06/03 00:32:40;;;;;;;6.85;3.20;;;;;;;;;;4793127;29;20046;-75
2022/06/03 00:35:28;;;;;;;9.63;3.67;;;;;;;;;;4817781;29;20415;-74
2022/06/03 00:38:20;;;;;;;12.18;3.38;;;;;;;;;;4815903;29;20046;-74
2022/06/03 00:41:10;;;;;;;6.65;2.72;;;;;;;;;;4813731;29;20050;-74
2022/06/03 00:43:49;;;;;;;5.60;2.70;;;;;;;;;;4819473;29;20050;-75
2022/06/03 00:46:41;;;;;;;6.10;2.97;;;;;;;;;;4818118;29;20529;-74
2022/06/03 00:49:28;;;;;;;;;;;;;;;;;;4820371;29;20051;-70
2022/06/03 00:52:14;;;;;;;6.70;2.97;;;;;;;;;;4796080;29;19936;-73
2022/06/03 00:54:58;;;;;;;10.25;3.40;;;;;;;;;;4799327;29;20058;-74
2022/06/03 00:57:46;;;;;;;9.50;4.18;;;;;;;;;;4803599;29;20055;-73
2022/06/03 01:00:22;;;;;;;11.20;3.80;;;;;;;;;;4783058;30;20051;-70
2022/06/03 01:03:11;;;;;;;5.38;3.53;;;;;;;;;;4782157;30;20508;-75
2022/06/03 01:06:13;;;;;;;6.43;3.40;;;;;;;;;;4782868;30;20054;-74
2022/06/03 01:08:43;;;;;;;5.40;2.75;;;;;;;;;;4782921;30;20055;-74
2022/06/03 01:11:53;;;;;;;6.63;3.10;;;;;;;;;;4783186;30;20051;-74
2022/06/03 01:14:30;;;;;;;9.02;3.78;;;;;;;;;;4782799;30;20059;-74
2022/06/03 01:17:10;;;;;;;9.50;3.83;;;;;;;;;;4782491;30;20393;-71
2022/06/03 01:20:10;;;;;;;7.03;3.42;;;;;;;;;;4782139;30;20051;-76
2022/06/03 01:22:58;;;;;;;8.55;3.55;;;;;;;;;;4781806;30;20058;-73
2022/06/03 01:25:58;;;;;;;9.63;3.03;;;;;;;;;;4780476;30;20059;-72
2022/06/03 01:28:37;;;;;;;9.55;3.10;;;;;;;;;;4781846;30;20039;-74
2022/06/03 01:31:44;;;;;;;5.28;2.78;;;;;;;;;;4781793;30;20062;-72
2022/06/03 01:34:24;;;;;;;4.60;2.85;;;;;;;;;;4782348;30;20066;-73
2022/06/03 01:36:54;;;;;;;6.88;3.08;;;;;;;;;;4782015;30;20066;-73
2022/06/03 01:39:41;;;;;;;10.20;3.05;;;;;;;;;;4782578;30;20063;-72
2022/06/03 01:42:33;;;;;;;10.55;3.40;;;;;;;;;;4782356;30;20051;-74
2022/06/03 01:45:09;;;;;;;6.07;3.65;;;;;;;;;;4781993;30;20059;-76
2022/06/03 01:47:56;;;;;;;9.23;3.47;;;;;;;;;;4781946;30;20554;-73
2022/06/03 01:50:59;;;;;;;6.07;3.20;;;;;;;;;;4781285;30;20055;-72
2022/06/03 01:53:58;;;;;;;3.78;2.80;;;;;;;;;;4780963;30;20059;-70
2022/06/03 01:56:40;;;;;;;5.72;2.97;;;;;;;;;;4758626;29;20070;-73
2022/06/03 01:59:15;;;;;;;4.15;2.92;;;;;;;;;;4781401;30;20059;-74
2022/06/03 02:02:22;;;;;;;5.50;3.10;;;;;;;;;;4781813;30;20058;-72
2022/06/03 02:05:20;;;;;;;6.53;2.88;;;;;;;;;;4781555;30;20047;-75
2022/06/03 02:07:59;;;;;;;5.82;3.03;;;;;;;;;;4782495;30;20059;-71
2022/06/03 02:10:48;;;;;;;5.47;2.72;;;;;;;;;;4781891;30;20066;-72
2022/06/03 02:13:38;;;;;;;5.13;2.35;;;;;;;;;;4781625;30;20071;-71
2022/06/03 02:16:34;;;;;;;3.80;2.20;;;;;;;;;;4781559;30;20062;-72
2022/06/03 02:19:30;;;;;;;5.50;2.50;;;;;;;;;;4781367;30;20055;-73
2022/06/03 02:22:37;;;;;;;4.35;2.20;;;;;;;;;;4780735;30;20059;-71
2022/06/03 02:25:29;;;;;;;10.10;2.20;;;;;;;;;;4781262;30;20055;-75
2022/06/03 02:28:12;;;;;;;6.93;2.40;;;;;;;;;;4781554;30;20055;-73
2022/06/03 02:31:13;;;;;;;5.45;2.08;;;;;;;;;;4781567;30;20413;-73
2022/06/03 02:34:03;;;;;;;3.88;2.20;;;;;;;;;;4782215;30;20066;-72
2022/06/03 02:37:24;;;;;;;4.88;2.08;;;;;;;;;;4781442;30;20059;-73
2022/06/03 02:40:21;;;;;;;7.35;2.60;;;;;;;;;;4781831;30;20052;-73
2022/06/03 02:43:12;;;;;;;9.05;2.20;;;;;;;;;;4781299;30;20054;-73
2022/06/03 02:46:14;;;;;;;3.47;2.13;;;;;;;;;;4781665;30;20508;-73
2022/06/03 02:48:53;;;;;;;4.00;1.90;;;;;;;;;;4745863;30;20067;-73
2022/06/03 02:51:50;;;;;;;8.73;2.50;;;;;;;;;;4780943;30;20059;-73
2022/06/03 02:54:58;;;;;;;4.28;2.40;;;;;;;;;;4781546;30;20507;-73
2022/06/03 02:57:47;;;;;;;10.68;2.42;;;;;;;;;;4781164;30;20047;-73
2022/06/03 03:00:45;;;;;;;4.03;2.20;;;;;;;;;;4782155;30;20082;-72
2022/06/03 03:03:38;;;;;;;4.82;2.22;;;;;;;;;;4781373;30;20060;-72
2022/06/03 03:06:40;;;;;;;6.78;2.40;;;;;;;;;;4756746;30;20066;-74
2022/06/03 03:09:41;;;;;;;4.20;2.35;;;;;;;;;;4782743;29;20055;-73
2022/06/03 03:12:16;;;;;;;3.38;2.30;;;;;;;;;;4784708;30;20055;-71
2022/06/03 03:15:14;;;;;;;6.00;2.42;;;;;;;;;;4784925;30;20055;-73
2022/06/03 03:18:11;;;;;;;5.70;2.30;;;;;;;;;;4784601;30;20055;-73
2022/06/03 03:20:59;;;;;;;5.75;2.28;;;;;;;;;;4784439;30;20054;-75
2022/06/03 03:23:45;;;;;;;5.82;2.50;;;;;;;;;;4785186;30;20787;-73
2022/06/03 03:26:28;;;;;;;6.90;2.78;;;;;;;;;;4768610;30;20065;-74
2022/06/03 03:29:22;;;;;;;4.53;2.47;;;;;;;;;;4784767;30;20055;-74
2022/06/03 03:32:42;;;;;;;6.70;2.50;;;;;;;;;;4769457;30;20072;-73
2022/06/03 03:35:39;;;;;;;9.98;2.50;;;;;;;;;;4726298;30;20063;-72
2022/06/03 03:38:46;;;;;;;6.20;2.78;;;;;;;;;;4784428;30;20047;-74
2022/06/03 03:41:36;;;;;;;5.03;2.47;;;;;;;;;;4783928;30;20528;-71
2022/06/03 03:44:43;;;;;;;4.35;2.92;;;;;;;;;;4784774;30;20055;-74
2022/06/03 03:47:28;;;;;;;8.10;2.72;;;;;;;;;;4784610;30;20531;-72
2022/06/03 03:50:22;;;;;;;5.53;2.30;;;;;;;;;;4785209;30;20059;-73
2022/06/03 03:53:07;;;;;;;4.90;2.35;;;;;;;;;;4784142;30;20823;-73
2022/06/03 03:56:16;;;;;;;6.63;2.70;;;;;;;;;;4784608;30;20047;-72
2022/06/03 03:58:52;;;;;;;;;;;;;;;;;;4784340;30;20076;-74
2022/06/03 04:02:09;;;;;;;4.72;2.85;;;;;;;;;;4784637;30;19925;-74
2022/06/03 04:05:19;;;;;;;7.10;2.90;;;;;;;;;;4784729;30;20066;-73
2022/06/03 04:08:26;;;;;;;4.70;3.22;;;;;;;;;;4784578;30;20055;-74
2022/06/03 04:11:11;;;;;;;5.43;3.15;;;;;;;;;;4768855;30;20058;-72
2022/06/03 04:13:50;;;;;;;6.22;3.20;;;;;;;;;;4784510;30;20531;-72
2022/06/03 04:16:53;;;;;;;4.40;3.33;;;;;;;;;;4784439;30;20064;-74
2022/06/03 04:19:53;;;;;;;5.38;3.08;;;;;;;;;;4784631;29;20051;-74
2022/06/03 04:22:35;;;;;;;7.70;3.20;;;;;;;;;;4783922;30;20055;-73
2022/06/03 04:25:31;;;;;;;8.40;3.83;;;;;;;;;;4783300;30;20131;-73
2022/06/03 04:28:07;;;;;;;10.45;4.13;;;;;;;;;;4783845;30;20058;-74
2022/06/03 04:31:18;;;;;;;9.93;3.97;;;;;;;;;;4784100;30;20061;-74
2022/06/03 04:34:07;;;;;;;4.22;3.50;;;;;;;;;;4772505;30;20063;-73
2022/06/03 04:36:40;;;;;;;8.25;4.22;;;;;;;;;;4784127;30;20059;-73
2022/06/03 04:39:21;;;;;;;10.35;4.15;;;;;;;;;;4784039;30;20508;-73
2022/06/03 04:41:54;;;;;;;;;;;;;;;;;;4784133;30;20047;-73
2022/06/03 04:45:00;;;;;;;10.25;4.15;;;;;;;;;;4784600;30;19929;-74
2022/06/03 04:47:52;;;;;;;5.40;3.90;;;;;;;;;;4783666;30;20062;-72
2022/06/03 04:50:22;;;;;;;7.90;3.95;;;;;;;;;;4783602;30;20412;-74
2022/06/03 04:53:29;;;;;;;7.57;4.50;;;;;;;;;;4783374;30;20059;-73
2022/06/03 04:56:21;;;;;;;10.25;4.03;;;;;;;;;;4783235;30;20051;-72
2022/06/03 04:59:03;;;;;;;14.32;4.80;;;;;;;;;;4782491;30;20524;-72
2022/06/03 05:01:51;;;;;;;;;;;;;;;;;;4784509;30;20055;-72
2022/06/03 05:04:58;;;;;;;9.82;4.50;;;;;;;;;;4783314;30;19925;-73
2022/06/03 05:07:45;;;;;;;4.65;3.83;;;;;;;;;;4783746;30;20523;-73
2022/06/03 05:10:43;;;;;;;10.38;4.20;;;;;;;;;;4784034;30;20066;-72
2022/06/03 05:13:40;;;;;;;9.95;4.22;;;;;;;;;;4782588;30;20051;-73
2022/06/03 05:16:42;;;;;;;16.67;4.53;;;;;;;;;;4783054;30;20059;-72
2022/06/03 05:19:35;;;;;;;;;;;;;;;;;;4783597;30;20051;-72
2022/06/03 05:22:27;;;;;;;8.38;3.42;;;;;;;;;;4783189;30;19933;-73
2022/06/03 05:25:30;;;;;;;10.17;3.60;;;;;;;;;;4783302;30;20059;-72
2022/06/03 05:28:36;;;;;;;8.60;2.88;;;;;;;;;;4783194;30;20886;-72
2022/06/03 05:31:30;;;;;;;11.40;2.83;;;;;;;;;;4781818;29;20048;-74
2022/06/03 05:34:39;;;;;;;9.85;2.08;;;;;;;;;;4783041;30;20062;-74
2022/06/03 05:37:24;;;;;;;3.00;1.83;;;;;;;;;;4773760;30;20082;-75
2022/06/03 05:40:29;;;;;;;5.82;2.08;;;;;;;;;;4782600;30;20055;-74
2022/06/03 05:43:17;;;;;;;2.83;1.35;;;;;;;;;;4754243;30;20430;-74
2022/06/03 05:46:12;;;;;;;6.75;1.95;;;;;;;;;;4782505;30;20054;-74
2022/06/03 05:48:47;;;;;;;15.40;1.80;;;;;;;;;;4782196;30;20055;-74
2022/06/03 05:51:37;;;;;;;6.70;1.95;;;;;;;;;;4766875;30;20055;-72
2022/06/03 05:54:26;;;;;;;3.13;1.35;;;;;;;;;;4782264;30;20066;-72
2022/06/03 05:57:20;;;;;;;2.55;1.40;;;;;;;;;;4781955;30;21634;-73
2022/06/03 06:00:02;;;;;;;9.20;1.70;;;;;;;;;;4783390;30;20074;-74
2022/06/03 06:02:41;;;;;;;2.70;1.55;;;;;;;;;;4784518;29;20062;-72
2022/06/03 06:05:11;;;;;;;11.95;1.73;;;;;;;;;;4782469;30;20051;-74
2022/06/03 06:07:52;;;;;;;3.38;1.70;;;;;;;;;;4782423;30;20058;-72
2022/06/03 06:10:48;;;;;;;;;;;;;;;;;;4782979;30;20394;-74
2022/06/03 06:13:38;;;;;;;7.80;2.70;;;;;;;;;;4782119;30;19950;-72
2022/06/03 06:16:23;;;;;;;5.70;2.60;;;;;;;;;;4782259;30;20058;-74
2022/06/03 06:18:59;;;;;;;8.45;2.50;;;;;;;;;;4782099;30;20059;-73
2022/06/03 06:21:47;;;;;;;6.25;2.60;;;;;;;;;;4781583;30;20497;-73
2022/06/03 06:24:20;;;;;;;4.65;2.83;;;;;;;;;;4782377;30;20047;-73
2022/06/03 06:27:18;;;;;;;8.18;3.25;;;;;;;;;;4782679;30;20055;-74
2022/06/03 06:29:54;;;;;;;5.57;2.83;;;;;;;;;;4782554;30;20055;-74
2022/06/03 06:32:58;;;;;;;10.05;3.83;;;;;;;;;;4781823;30;20058;-72
2022/06/03 06:35:46;;;;;;;10.48;3.90;;;;;;;;;;4761180;30;20067;-72
2022/06/03 06:38:44;;;;;;;6.90;4.40;;;;;;;;;;4782311;30;20055;-72
2022/06/03 06:41:46;;;;;;;10.40;5.20;;;;;;;;;;4782227;30;20054;-73
2022/06/03 06:44:24;;;;;;;10.50;5.90;;;;;;;;;;4759996;30;20071;-74
2022/06/03 06:46:56;;;;;;;9.32;5.93;;;;;;;;;;4765714;30;20062;-73
2022/06/03 06:49:41;;;;;;;15.35;7.07;;;;;;;;;;4781657;30;20159;-74
2022/06/03 06:52:27;;;;;;;11.25;6.53;;;;;;;;;;4781829;30;20068;-74
2022/06/03 06:55:12;;;;;;;10.00;6.80;;;;;;;;;;4766095;30;20047;-71
2022/06/03 06:58:00;;;;;;;8.48;6.05;;;;;;;;;;4781314;30;20058;-73
2022/06/03 07:00:36;;;;;;;12.68;6.82;;;;;;;;;;4781710;30;20066;-72
2022/06/03 07:03:50;;;;;;;14.48;7.03;;;;;;;;;;4781712;30;20059;-74
2022/06/03 07:06:43;;;;;;;15.60;6.40;;;;;;;;;;4725894;30;20070;-73
2022/06/03 07:09:49;;;;;;;13.20;6.05;;;;;;;;;;4781136;30;20082;-74
2022/06/03 07:12:25;;;;;;;9.07;5.70;;;;;;;;;;4781364;30;20047;-72
2022/06/03 07:15:25;;;;;;;14.38;6.22;;;;;;;;;;4781504;30;20051;-73
2022/06/03 07:21:10;;;;;;;9.73;5.60;;;;;;;;;;4767466;30;20070;-73
2022/06/03 07:23:55;;;;;;;10.20;6.05;;;;;;;;;;4780996;30;20055;-73
2022/06/03 07:26:42;;;;;;;12.18;6.53;;;;;;;;;;4781315;30;20051;-73
2022/06/03 07:29:21;;;;;;;9.15;4.63;;;;;;;;;;4764998;30;20063;-72
2022/06/03 07:32:08;;;;;;;8.40;5.50;;;;;;;;;;4781308;30;20047;-73
2022/06/03 07:34:54;;;;;;;12.50;5.55;;;;;;;;;;4781106;30;20051;-71
2022/06/03 07:37:38;;;;;;;11.55;5.55;;;;;;;;;;4766174;30;20051;-74
2022/06/03 07:40:24;;;;;;;12.20;5.15;;;;;;;;;;4764276;30;20088;-73
2022/06/03 07:43:24;;;;;;;9.63;5.30;;;;;;;;;;4764556;30;20469;-73
2022/06/03 07:46:10;;;;;;;7.45;5.10;;;;;;;;;;4781844;30;20051;-73
2022/06/03 07:48:40;;;;;;;10.00;5.03;;;;;;;;;;4781655;30;20535;-73
2022/06/03 07:51:33;;;;;;;7.80;5.00;;;;;;;;;;4781127;30;20047;-73
2022/06/03 07:54:11;;;;;;;6.65;4.55;;;;;;;;;;4781475;29;20070;-72
2022/06/03 07:56:41;;;;;;;8.38;4.93;;;;;;;;;;4784192;30;20047;-73
2022/06/03 07:59:18;;;;;;;12.23;5.50;;;;;;;;;;4784685;30;20067;-73
2022/06/03 08:02:11;;;;;;;13.25;4.78;;;;;;;;;;4784256;30;20067;-72
2022/06/03 08:04:42;;;;;;;10.60;5.00;;;;;;;;;;4784484;30;20059;-71
2022/06/03 08:13:09;;;;;;;7.82;4.53;;;;;;;;;;4784592;30;20058;-72
2022/06/03 08:15:50;;;;;;;10.57;4.85;;;;;;;;;;4784486;30;20063;-72
2022/06/03 08:18:21;;;;;;;13.02;4.35;;;;;;;;;;4784308;30;20043;-73
2022/06/03 08:21:07;;;;;;;7.85;4.53;;;;;;;;;;4784367;30;20059;-73
2022/06/03 08:23:39;;;;;;;9.82;4.32;;;;;;;;;;4784372;30;20055;-73
2022/06/03 08:26:13;;;;;;;13.25;4.60;;;;;;;;;;4767810;30;20090;-72
2022/06/03 08:28:54;;;;;;;6.97;4.25;;;;;;;;;;4783840;30;20079;-73
2022/06/03 08:31:25;;;;;;;7.25;4.60;;;;;;;;;;4784053;30;20047;-73
2022/06/03 08:34:00;;;;;;;15.15;4.90;;;;;;;;;;4783855;30;20051;-73
2022/06/03 08:36:38;;;;;;;10.80;5.10;;;;;;;;;;4784223;30;20055;-73
2022/06/03 08:39:13;;;;;;;10.43;4.43;;;;;;;;;;4767678;30;20059;-73
2022/06/03 08:42:05;;;;;;;14.70;5.00;;;;;;;;;;4783448;30;20054;-73
2022/06/03 08:44:35;;;;;;;12.80;4.82;;;;;;;;;;4783606;30;20043;-71
2022/06/03 08:47:31;;;;;;;11.02;5.20;;;;;;;;;;4784008;30;20500;-75
2022/06/03 08:50:05;;;;;;;8.63;4.65;;;;;;;;;;4757915;30;20063;-72
2022/06/03 08:52:53;;;;;;;13.35;5.75;;;;;;;;;;4783509;30;20047;-71
2022/06/03 08:55:59;;;;;;;8.73;5.10;;;;;;;;;;4782997;30;20055;-71
2022/06/03 08:58:56;;;;;;;12.52;4.50;;;;;;;;;;4726913;30;20064;-73
2022/06/03 09:01:27;;;;;;;13.32;5.00;;;;;;;;;;4783300;30;20534;-72
2022/06/03 09:04:21;;;;;;;11.73;4.80;;;;;;;;;;4784118;30;20055;-72
2022/06/03 09:06:58;;;;;;;8.07;4.28;;;;;;;;;;4782797;29;20055;-71
2022/06/03 09:09:33;;;;;;;11.63;5.05;;;;;;;;;;4783706;30;20051;-71
2022/06/03 09:12:15;;;;;;;10.13;5.13;;;;;;;;;;4782614;30;20064;-73
2022/06/03 09:14:48;;;;;;;6.50;4.05;;;;;;;;;;4782977;30;20130;-72
2022/06/03 09:17:33;;;;;;;7.03;4.75;;;;;;;;;;4766876;30;20054;-73
2022/06/03 09:20:18;;;;;;;14.60;5.05;;;;;;;;;;4783320;30;20058;-73
2022/06/03 09:22:50;;;;;;;10.80;4.75;;;;;;;;;;4782467;30;20043;-73
2022/06/03 09:25:20;;;;;;;5.95;4.15;;;;;;;;;;4766617;30;20047;-72
2022/06/03 09:27:51;;;;;;;10.85;4.75;;;;;;;;;;4782925;30;20420;-73
2022/06/03 09:30:32;;;;;;;13.45;4.75;;;;;;;;;;4783300;30;20058;-72
2022/06/03 09:33:05;;;;;;;10.15;4.50;;;;;;;;;;4782830;30;20051;-74
2022/06/03 09:35:41;;;;;;;10.32;5.60;;;;;;;;;;4782628;30;20055;-75
2022/06/03 09:38:14;;;;;;;10.32;5.22;;;;;;;;;;4783247;30;20043;-76
2022/06/03 09:40:47;;;;;;;15.00;5.70;;;;;;;;;;4782845;30;20524;-73
2022/06/03 09:43:33;;;;;;;8.77;3.95;;;;;;;;;;4782769;30;20424;-73
2022/06/03 09:46:05;;;;;;;7.30;5.38;;;;;;;;;;4766083;30;20075;-73
2022/06/03 09:48:36;;;;;;;;;;;;;;;;;;4783487;30;20048;-71
2022/06/03 09:51:19;;;;;;;11.98;4.43;;;;;;;;;;4781914;30;19925;-75
2022/06/03 09:53:49;;;;;;;8.07;4.35;;;;;;;;;;4782546;30;20051;-72
2022/06/03 09:56:32;;;;;;;11.60;4.53;;;;;;;;;;4782344;30;20063;-72
2022/06/03 09:59:03;;;;;;;6.13;3.78;;;;;;;;;;4782483;30;20063;-74
2022/06/03 10:01:34;;;;;;;7.40;4.32;;;;;;;;;;4783041;30;20059;-73
2022/06/03 10:04:07;;;;;;;14.38;4.43;;;;;;;;;;4782098;30;20047;-73
2022/06/03 10:06:46;;;;;;;13.68;3.78;;;;;;;;;;4781943;30;20066;-71
2022/06/03 10:18:03;;;;;;;11.27;4.50;;;;;;;;;;4766016;30;20526;-71
2022/06/03 10:20:35;;;;;;;6.80;3.58;;;;;;;;;;4781868;30;20296;-72
2022/06/03 10:23:10;;;;;;;10.15;3.70;;;;;;;;;;4782058;30;20058;-72
2022/06/03 10:26:01;;;;;;;13.27;4.03;;;;;;;;;;4782102;30;20062;-71
2022/06/03 10:28:40;;;;;;;12.18;4.07;;;;;;;;;;4782033;30;20059;-77
2022/06/03 10:31:16;;;;;;;7.72;3.90;;;;;;;;;;4782198;30;20051;-72
2022/06/03 10:33:58;;;;;;;9.50;4.93;;;;;;;;;;4781628;30;20051;-73
2022/06/03 10:36:34;;;;;;;11.07;5.70;;;;;;;;;;4782102;30;20420;-72
2022/06/03 10:39:05;;;;;;;13.13;4.90;;;;;;;;;;4781536;30;20604;-72
2022/06/03 10:41:40;;;;;;;5.53;3.75;;;;;;;;;;4780790;30;20051;-73
2022/06/03 10:44:17;;;;;;;7.22;3.95;;;;;;;;;;4780308;30;20051;-71
2022/06/03 10:47:02;;;;;;;6.97;3.60;;;;;;;;;;4781164;30;20051;-72
2022/06/03 10:49:37;;;;;;;5.45;2.80;;;;;;;;;;4781653;30;20074;-72
2022/06/03 11:03:28;;;;;;;7.50;3.17;;;;;;;;;;4781921;30;20078;-72
2022/06/03 11:06:11;;;;;;;7.25;4.20;;;;;;;;;;4781223;30;20051;-73
2022/06/03 11:08:56;;;;;;;6.00;3.67;;;;;;;;;;4781641;30;20055;-73
2022/06/03 11:11:34;;;;;;;7.95;3.45;;;;;;;;;;4781732;30;20055;-76
2022/06/03 11:14:24;;;;;;;6.20;3.35;;;;;;;;;;4782048;30;20527;-74
2022/06/03 11:16:54;;;;;;;13.32;2.95;;;;;;;;;;4765979;30;20052;-73
2022/06/03 11:19:24;;;;;;;5.40;2.83;;;;;;;;;;4781176;30;20054;-74
2022/06/03 11:22:45;;;;;;;9.25;3.00;;;;;;;;;;4781388;30;20047;-75
2022/06/03 11:25:36;;;;;;;10.15;2.85;;;;;;;;;;4753048;30;20063;-72
2022/06/03 11:28:16;;;;;;;8.02;2.35;;;;;;;;;;4780382;30;20055;-72
2022/06/03 11:30:51;;;;;;;5.05;2.10;;;;;;;;;;4767518;30;20401;-73
2022/06/03 11:33:27;;;;;;;6.28;2.53;;;;;;;;;;4785077;30;20044;-74
2022/06/03 11:36:17;;;;;;;5.55;2.22;;;;;;;;;;4785294;30;20052;-72
2022/06/03 11:38:56;;;;;;;5.18;2.25;;;;;;;;;;4767657;30;20091;-74
2022/06/03 11:41:30;;;;;;;23.70;10.65;;;;;;;;;;4784883;30;20051;-73
2022/06/03 11:44:07;;;;;;;34.45;11.43;;;;;;;;;;4784367;30;20047;-72
2022/06/03 11:46:43;;;;;;;19.73;5.15;;;;;;;;;;4784518;30;20051;-73
2022/06/03 11:49:18;;;;;;;10.27;2.80;;;;;;;;;;4784487;30;20047;-73
2022/06/03 11:51:50;;;;;;;18.20;5.35;;;;;;;;;;4785040;30;20058;-71
2022/06/03 11:54:24;;;;;;;8.43;2.33;;;;;;;;;;4784501;30;20058;-71
2022/06/03 11:56:55;;;;;;;6.88;2.03;;;;;;;;;;4784080;30;20060;-71
2022/06/03 11:59:47;;;;;;;5.30;1.80;;;;;;;;;;4784301;30;20504;-71
2022/06/03 12:02:35;;;;;;;7.00;1.85;;;;;;;;;;4783865;30;20063;-72
2022/06/03 12:05:22;;;;;;;4.88;2.00;;;;;;;;;;4784408;30;20051;-72
2022/06/03 12:08:20;;;;;;;7.15;2.28;;;;;;;;;;4784823;30;20051;-72
2022/06/03 12:10:55;;;;;;;6.40;2.20;;;;;;;;;;4784269;30;20077;-72
2022/06/03 12:13:32;;;;;;;15.43;3.10;;;;;;;;;;4784882;30;20053;-71
2022/06/03 12:16:10;;;;;;;13.20;3.20;;;;;;;;;;4784015;30;20059;-73
2022/06/03 12:19:01;;;;;;;10.20;2.70;;;;;;;;;;4783638;30;20058;-73
2022/06/03 12:21:31;;;;;;;14.20;2.45;;;;;;;;;;4783938;30;20059;-73
2022/06/03 12:24:47;;;;;;;19.05;4.18;;;;;;;;;;4783372;30;20066;-74
2022/06/03 12:27:28;;;;;;;19.80;2.65;;;;;;;;;;4782576;30;20063;-73
2022/06/03 12:30:06;;;;;;;15.20;3.33;;;;;;;;;;4784291;30;20055;-73
2022/06/03 12:32:39;;;;;;;7.60;2.53;;;;;;;;;;4782720;30;20055;-72
2022/06/03 12:35:43;;;;;;;6.55;2.20;;;;;;;;;;4783673;30;20535;-75
2022/06/03 12:38:23;;;;;;;5.43;1.73;;;;;;;;;;4783395;30;20051;-75
2022/06/03 12:40:56;;;;;;;12.68;2.45;;;;;;;;;;4781740;29;20064;-74
2022/06/03 12:43:46;;;;;;;7.50;1.90;;;;;;;;;;4783335;30;20043;-73
2022/06/03 12:46:43;;;;;;;17.17;2.88;;;;;;;;;;4766763;30;20059;-73
2022/06/03 12:49:32;;;;;;;6.50;2.00;;;;;;;;;;4781341;30;20070;-73
2022/06/03 12:52:08;;;;;;;6.45;1.60;;;;;;;;;;4783651;30;20515;-73
2022/06/03 12:54:56;;;;;;;22.00;3.22;;;;;;;;;;4782838;30;20047;-73
2022/06/03 12:57:37;;;;;;;5.38;1.70;;;;;;;;;;4782509;30;20417;-73
2022/06/03 13:00:10;;;;;;;5.25;1.55;;;;;;;;;;4783223;30;20082;-77
2022/06/03 13:02:56;;;;;;;7.97;1.40;;;;;;;;;;4782254;30;20070;-75
2022/06/03 13:05:49;;;;;;;6.60;1.90;;;;;;;;;;4783330;30;20047;-73
2022/06/03 13:08:28;;;;;;;6.82;1.50;;;;;;;;;;4782714;30;20058;-76
2022/06/03 13:10:59;;;;;;;17.45;2.50;;;;;;;;;;4783001;30;20058;-73
2022/06/03 13:13:30;;;;;;;16.45;3.22;;;;;;;;;;4782755;30;20424;-74
2022/06/03 13:16:19;;;;;;;11.02;1.75;;;;;;;;;;4766435;30;20554;-74
2022/06/03 13:18:58;;;;;;;7.43;1.50;;;;;;;;;;4782120;30;20059;-74
2022/06/03 13:21:46;;;;;;;8.45;2.05;;;;;;;;;;4782429;30;20054;-73
2022/06/03 13:24:25;;;;;;;8.13;1.58;;;;;;;;;;4782652;30;20051;-72
2022/06/03 13:26:58;;;;;;;12.27;2.20;;;;;;;;;;4782432;30;20051;-74
2022/06/03 13:29:47;;;;;;;17.45;2.45;;;;;;;;;;4783017;30;20393;-74
2022/06/03 13:32:37;;;;;;;6.35;1.55;;;;;;;;;;4766603;30;20059;-73
2022/06/03 13:35:33;;;;;;;13.88;2.95;;;;;;;;;;4783610;30;20753;-74
2022/06/03 13:38:17;;;;;;;8.90;1.92;;;;;;;;;;4782221;30;20055;-72
2022/06/03 13:43:35;;;;;;;5.82;1.40;;;;;;;;;;4782372;30;20047;-73
2022/06/03 13:46:10;;;;;;;5.00;1.63;;;;;;;;;;4782385;30;20051;-72
2022/06/03 13:48:51;;;;;;;5.68;1.40;;;;;;;;;;4782260;30;20117;-73
2022/06/03 13:51:31;;;;;;;5.38;1.95;;;;;;;;;;4782748;30;20505;-72
2022/06/03 13:54:18;;;;;;;14.10;2.30;;;;;;;;;;4781455;30;20043;-73
2022/06/03 13:56:57;;;;;;;9.43;1.90;;;;;;;;;;4782702;30;20047;-73
2022/06/03 13:59:33;;;;;;;6.32;2.65;;;;;;;;;;4782323;30;20055;-73
2022/06/03 14:02:22;;;;;;;18.75;2.35;;;;;;;;;;4782389;30;20055;-72
2022/06/03 14:05:01;;;;;;;6.47;2.35;;;;;;;;;;4781620;30;20055;-73
2022/06/03 14:07:44;;;;;;;11.23;2.20;;;;;;;;;;4782367;30;20516;-74
2022/06/03 14:10:22;;;;;;;9.68;1.75;;;;;;;;;;4781969;30;20055;-73
2022/06/03 14:13:11;;;;;;;18.67;2.70;;;;;;;;;;4781277;30;20059;-74
2022/06/03 14:16:09;;;;;;;8.68;2.00;;;;;;;;;;4781953;30;20050;-74
2022/06/03 14:19:17;;;;;;;4.93;1.52;;;;;;;;;;4781718;30;20074;-72
2022/06/03 14:22:31;;;;;;;7.88;1.30;;;;;;;;;;4781776;30;20051;-73
2022/06/03 14:25:30;;;;;;;7.78;1.55;;;;;;;;;;4781497;30;20515;-73
2022/06/03 14:28:33;;;;;;;11.30;2.10;;;;;;;;;;4761387;30;20063;-73
2022/06/03 14:31:13;;;;;;;2.45;1.23;;;;;;;;;;4781930;30;20532;-74
2022/06/03 14:33:49;;;;;;;8.20;1.40;;;;;;;;;;4781458;30;20063;-72
2022/06/03 14:36:20;;;;;;;8.18;2.00;;;;;;;;;;4781381;30;20382;-72
2022/06/03 14:38:58;;;;;;;4.32;1.27;;;;;;;;;;4781537;30;20062;-74
2022/06/03 14:41:32;;;;;;;4.90;1.20;;;;;;;;;;4781378;30;20059;-73
2022/06/03 14:44:09;;;;;;;5.60;1.38;;;;;;;;;;4780650;30;20123;-72
2022/06/03 14:47:12;;;;;;;9.43;1.83;;;;;;;;;;4781144;30;20051;-73
2022/06/03 14:49:48;;;;;;;6.47;1.55;;;;;;;;;;4781934;30;20596;-74
2022/06/03 14:52:34;;;;;;;10.88;2.63;;;;;;;;;;4781181;30;20082;-74
2022/06/03 14:55:17;;;;;;;14.75;2.00;;;;;;;;;;4782058;30;20054;-74
2022/06/03 14:58:18;;;;;;;5.72;1.45;;;;;;;;;;4781841;30;20077;-73
2022/06/03 15:01:13;;;;;;;9.20;1.88;;;;;;;;;;4782350;30;20057;-72
2022/06/03 15:04:09;;;;;;;14.05;3.40;;;;;;;;;;4781104;30;20071;-73
2022/06/03 15:07:03;;;;;;;10.30;2.65;;;;;;;;;;4781556;30;20047;-73
2022/06/03 15:09:47;;;;;;;6.28;2.50;;;;;;;;;;4781443;30;20051;-73
2022/06/03 15:12:22;;;;;;;6.68;1.60;;;;;;;;;;4781291;30;20444;-72
2022/06/03 15:14:53;;;;;;;3.45;1.20;;;;;;;;;;4781676;30;20058;-73
2022/06/03 15:17:29;;;;;;;2.57;1.43;;;;;;;;;;4780971;30;20059;-73
2022/06/03 15:20:13;;;;;;;9.85;2.28;;;;;;;;;;4781325;30;20300;-75
2022/06/03 15:22:48;;;;;;;11.77;1.70;;;;;;;;;;4782155;30;20066;-72
2022/06/03 15:25:45;;;;;;;5.00;1.52;;;;;;;;;;4781521;30;20055;-74
2022/06/03 15:28:16;;;;;;;14.15;2.28;;;;;;;;;;4781201;30;20055;-73
2022/06/03 15:31:04;;;;;;;11.57;3.80;;;;;;;;;;4781612;30;20051;-73
2022/06/03 15:33:41;;;;;;;4.72;1.45;;;;;;;;;;4781158;30;20416;-74
2022/06/03 15:36:21;;;;;;;5.97;1.35;;;;;;;;;;4781004;30;20078;-72
2022/06/03 15:39:12;;;;;;;7.72;1.48;;;;;;;;;;4781314;30;20058;-73
2022/06/03 15:41:46;;;;;;;;;;;;;;;;;;4781710;30;20058;-72
2022/06/03 15:44:39;;;;;;;5.50;1.30;;;;;;;;;;4781276;30;19930;-73
2022/06/03 15:47:11;;;;;;;8.50;1.73;;;;;;;;;;4781070;30;20051;-73
2022/06/03 15:49:50;;;;;;;13.48;1.50;;;;;;;;;;4781291;30;20534;-74
2022/06/03 15:52:24;;;;;;;6.50;1.67;;;;;;;;;;4781062;30;20062;-74
2022/06/03 15:54:58;;;;;;;11.15;1.60;;;;;;;;;;4780922;30;20225;-73
2022/06/03 15:58:01;;;;;;;6.68;1.65;;;;;;;;;;4781099;30;20509;-73
2022/06/03 16:00:43;;;;;;;2.65;1.10;;;;;;;;;;4780988;30;20047;-73
2022/06/03 16:03:38;;;;;;;4.25;1.35;;;;;;;;;;4764096;30;20059;-73
2022/06/03 16:06:15;;;;;;;9.50;1.70;;;;;;;;;;4780805;30;20062;-74
2022/06/03 16:08:59;;;;;;;4.45;1.20;;;;;;;;;;4781160;30;20538;-72
2022/06/03 16:11:38;;;;;;;7.20;1.60;;;;;;;;;;4781106;30;20059;-72
2022/06/03 16:14:26;;;;;;;5.38;1.20;;;;;;;;;;4765792;30;20047;-72
2022/06/03 16:17:17;;;;;;;10.10;1.63;;;;;;;;;;4783812;29;20067;-73
2022/06/03 16:20:13;;;;;;;8.65;2.40;;;;;;;;;;4784289;30;20047;-72
2022/06/03 16:23:02;;;;;;;4.45;1.17;;;;;;;;;;4783793;30;20054;-72
2022/06/03 16:25:54;;;;;;;4.13;1.25;;;;;;;;;;4784209;30;20047;-76
2022/06/03 16:28:46;;;;;;;4.25;1.63;;;;;;;;;;4784305;30;20066;-74
2022/06/03 16:31:30;;;;;;;12.00;1.40;;;;;;;;;;4784052;30;20055;-73
2022/06/03 16:34:19;;;;;;;13.20;1.40;;;;;;;;;;4784078;30;20544;-73
2022/06/03 16:37:25;;;;;;;12.82;2.00;;;;;;;;;;4783685;30;20059;-73
2022/06/03 16:40:19;;;;;;;7.70;1.40;;;;;;;;;;4765895;30;20067;-73
2022/06/03 16:43:20;;;;;;;9.60;1.50;;;;;;;;;;4783605;30;20417;-73
2022/06/03 16:46:16;;;;;;;7.95;2.03;;;;;;;;;;4783882;30;20504;-74
2022/06/03 16:49:13;;;;;;;5.47;1.80;;;;;;;;;;4783644;30;20044;-75
2022/06/03 16:51:56;;;;;;;9.15;1.23;;;;;;;;;;4783760;30;20051;-74
2022/06/03 16:54:32;;;;;;;9.45;2.45;;;;;;;;;;4783347;30;20066;-73
2022/06/03 16:57:10;;;;;;;5.22;1.10;;;;;;;;;;4783383;30;20051;-73
2022/06/03 16:59:42;;;;;;;4.45;1.10;;;;;;;;;;4783662;30;20107;-73
2022/06/03 17:02:25;;;;;;;6.22;1.00;;;;;;;;;;4783230;30;20776;-72
2022/06/03 17:04:56;;;;;;;4.13;1.05;;;;;;;;;;4784057;30;20055;-72